Terminal Aerodrome Forecast
Issued by NWS Duluth, MN

Home | Current Version | Previous Version | Text Only | Print | Product List | Glossary On
Versions: 1 2 3 4 5 6 7 8 9 10 11 12 13 14 15 16 17 18 19 20 21 22 23 24 25 26 27 28 29 30
000
FTUS43 KDLH 301700
TAFINL
TAF
KINL 301720Z 3018/3118 05007KT P6SM SCT025
      TEMPO 3018/3020 BKN025
     FM302000 07003KT P6SM SCT025 BKN035
     FM310100 VRB01KT P6SM SCT035
     FM311400 14009KT P6SM SCT050
     FM311700 15012G20KT P6SM BKN050 OVC100=

USA.gov is the U.S. government's official web portal to all federal, state and local government web resources and services.